Time;durP1;ratioP1;P1;durP2;ratioP2;P2;SDS_P1;SDS_P2;PMS_P1;PMS_P2;Temp;Humidity;BMP_temperature;BMP_pressure;BME280_temperature;BME280_humidity;BME280_pressure;Samples;Min_cycle;Max_cycle;Signal;HPM_P1;HPM_P2
2023/09/18 00:00:50;;;;;;;26.10;17.70;;;;;;;18.69;55.94;100911.45;108033;1254;72519;-66
2023/09/18 00:03:20;;;;;;;22.40;16.60;;;;;;;18.69;56.00;100914.30;108203;1253;60870;-66
2023/09/18 00:05:48;;;;;;;23.20;17.30;;;;;;;18.86;55.66;100911.34;108188;1253;60406;-68
2023/09/18 00:08:16;;;;;;;34.40;18.00;;;;;;;18.66;55.99;100910.92;108171;1254;73828;-69
2023/09/18 00:10:53;;;;;;;20.20;15.40;;;;;;;18.39;56.89;100912.27;108148;1253;70469;-67
2023/09/18 00:13:21;;;;;;;25.30;18.10;;;;;;;18.46;56.80;100909.41;108158;1252;72739;-67
2023/09/18 00:15:49;;;;;;;29.30;18.40;;;;;;;18.50;56.57;100911.48;108202;1253;61647;-65
2023/09/18 00:18:17;;;;;;;22.20;15.90;;;;;;;18.65;56.36;100913.98;108182;1253;60467;-68
2023/09/18 00:20:46;;;;;;;27.90;18.30;;;;;;;18.74;56.00;100916.11;108218;1251;73795;-67
2023/09/18 00:23:15;;;;;;;23.00;16.40;;;;;;;18.60;56.32;100913.35;108168;1250;70088;-67
2023/09/18 00:25:43;;;;;;;22.10;15.00;;;;;;;18.41;56.96;100911.80;108195;1251;71424;-67
2023/09/18 00:28:11;;;;;;;26.20;17.40;;;;;;;18.59;56.47;100909.88;108309;1251;60837;-67
2023/09/18 00:30:43;;;;;;;21.90;15.60;;;;;;;18.40;56.83;100906.48;108321;1252;60262;-67
2023/09/18 00:33:10;;;;;;;22.60;16.80;;;;;;;18.49;56.81;100906.89;108108;1251;73886;-67
2023/09/18 00:35:38;;;;;;;24.30;17.00;;;;;;;18.42;56.99;100907.69;108320;1251;70012;-67
2023/09/18 00:38:07;;;;;;;21.00;16.00;;;;;;;18.47;57.05;100909.14;108168;1251;71699;-67
2023/09/18 00:40:35;;;;;;;25.60;18.00;;;;;;;18.56;56.79;100908.82;108112;1250;61629;-67
2023/09/18 00:43:03;;;;;;;21.20;15.60;;;;;;;18.44;57.09;100909.33;108287;1250;60386;-67
2023/09/18 00:45:30;;;;;;;22.50;17.80;;;;;;;18.78;56.43;100912.54;108327;1251;73852;-67
2023/09/18 00:47:59;;;;;;;24.50;17.30;;;;;;;18.56;56.64;100911.86;108334;1251;68695;-67
2023/09/18 00:50:28;;;;;;;27.60;16.20;;;;;;;18.37;57.25;100912.06;108240;1250;72677;-68
2023/09/18 00:52:55;;;;;;;26.10;17.30;;;;;;;18.34;57.29;100910.78;108329;1250;60517;-66
2023/09/18 00:55:23;;;;;;;23.60;17.40;;;;;;;18.33;57.40;100911.52;108291;1256;61084;-67
2023/09/18 00:57:50;;;;;;;22.30;16.30;;;;;;;18.27;57.58;100910.80;108259;1250;71963;-66
2023/09/18 01:00:18;;;;;;;28.50;17.80;;;;;;;18.31;57.60;100912.20;108226;1251;69934;-67
2023/09/18 01:02:46;;;;;;;24.80;16.00;;;;;;;18.26;58.13;100909.27;108264;1251;71408;-68
2023/09/18 01:05:16;;;;;;;24.80;18.70;;;;;;;18.18;58.49;100906.35;108205;1251;60408;-68
2023/09/18 01:07:44;;;;;;;25.60;18.40;;;;;;;18.17;58.45;100908.73;108324;1250;58762;-66
2023/09/18 01:10:16;;;;;;;20.80;15.10;;;;;;;18.04;58.93;100907.11;108248;1251;73939;-68
2023/09/18 01:13:05;;;;;;;25.80;18.50;;;;;;;18.13;58.89;100908.91;108359;1250;70425;-68
2023/09/18 01:15:35;;;;;;;26.90;18.30;;;;;;;18.24;58.63;100904.77;108203;1253;71519;-68
2023/09/18 01:18:03;;;;;;;27.30;17.90;;;;;;;18.08;59.12;100906.71;108207;1251;61678;-67
2023/09/18 01:20:30;;;;;;;26.20;18.80;;;;;;;18.07;59.45;100908.20;108378;1250;60396;-67
2023/09/18 01:22:58;;;;;;;23.30;16.70;;;;;;;18.17;59.16;100904.95;108373;1250;74671;-67
2023/09/18 01:25:25;;;;;;;29.80;20.40;;;;;;;18.08;59.48;100907.82;108258;1251;69940;-67
2023/09/18 01:27:53;;;;;;;33.80;21.40;;;;;;;18.03;59.55;100909.69;108349;1254;72692;-67
2023/09/18 01:30:20;;;;;;;24.20;18.00;;;;;;;18.24;59.18;100910.80;108307;1253;61674;-67
2023/09/18 01:32:48;;;;;;;29.70;22.60;;;;;;;18.22;59.23;100907.34;108312;1251;60380;-65
2023/09/18 01:35:15;;;;;;;28.10;20.20;;;;;;;18.22;59.02;100903.79;108309;1250;72644;-67
2023/09/18 01:37:42;;;;;;;25.00;17.70;;;;;;;18.16;59.48;100903.58;108206;1251;69623;-67
2023/09/18 01:40:11;;;;;;;31.10;22.00;;;;;;;18.13;59.39;100901.30;108213;1251;72489;-67
2023/09/18 01:42:38;;;;;;;29.70;20.70;;;;;;;18.16;59.36;100898.44;108248;1254;61661;-68
2023/09/18 01:45:06;;;;;;;26.40;20.80;;;;;;;18.15;59.40;100901.33;108273;1251;60309;-67
2023/09/18 01:47:34;;;;;;;30.30;21.00;;;;;;;18.13;59.55;100900.79;108358;1251;72608;-68
2023/09/18 01:50:06;;;;;;;28.00;19.00;;;;;;;18.19;59.28;100899.67;108325;1256;70516;-68
2023/09/18 01:52:36;;;;;;;31.90;20.80;;;;;;;18.12;59.43;100896.38;108324;1250;72699;-68
2023/09/18 01:55:04;;;;;;;29.00;20.10;;;;;;;18.14;59.24;100895.04;108397;1250;60882;-68
2023/09/18 01:57:32;;;;;;;34.00;22.40;;;;;;;18.11;59.28;100898.05;108305;1250;60271;-68
2023/09/18 01:59:59;;;;;;;32.50;22.60;;;;;;;18.13;59.35;100893.83;108239;1251;73816;-68
2023/09/18 02:02:27;;;;;;;28.00;20.00;;;;;;;18.08;59.50;100895.55;108296;1256;69956;-68
2023/09/18 02:05:08;;;;;;;;;;;;;;;18.09;59.48;100893.37;108239;1251;71528;-68
2023/09/18 02:07:37;;;;;;;34.40;23.20;;;;;;;18.16;59.37;100894.72;108223;1252;61889;-67
2023/09/18 02:10:05;;;;;;;30.50;19.60;;;;;;;18.01;59.81;100887.77;108351;1251;59993;-68
2023/09/18 02:12:32;;;;;;;32.50;22.10;;;;;;;18.07;59.60;100892.04;108279;1250;73828;-68
2023/09/18 02:15:05;;;;;;;30.00;19.70;;;;;;;18.09;59.54;100889.11;108254;1251;70288;-67
2023/09/18 02:17:33;;;;;;;33.80;23.10;;;;;;;18.18;59.24;100887.52;108302;1254;74905;-67
2023/09/18 02:20:04;;;;;;;42.20;27.40;;;;;;;18.15;59.19;100888.22;108358;1252;62057;-67
2023/09/18 02:22:32;;;;;;;29.20;20.10;;;;;;;18.08;59.33;100887.01;108323;1251;60606;-65
2023/09/18 02:25:00;;;;;;;47.60;29.20;;;;;;;18.29;58.88;100888.52;108216;1251;73881;-66
2023/09/18 02:27:27;;;;;;;41.30;28.10;;;;;;;18.11;59.09;100880.29;108304;1256;69247;-68
2023/09/18 02:29:54;;;;;;;28.30;20.10;;;;;;;18.11;59.30;100883.46;108179;1251;71841;-66
2023/09/18 02:32:22;;;;;;;36.20;23.70;;;;;;;18.16;59.05;100886.54;108306;1251;61680;-68
2023/09/18 02:34:50;;;;;;;29.50;20.50;;;;;;;18.11;59.34;100883.64;108239;1251;60392;-67
2023/09/18 02:37:17;;;;;;;35.50;25.00;;;;;;;18.13;59.43;100880.83;108166;1251;73883;-67
2023/09/18 02:39:45;;;;;;;45.40;27.60;;;;;;;18.23;59.13;100880.27;108236;1251;70470;-68
2023/09/18 02:42:12;;;;;;;33.60;22.70;;;;;;;18.44;58.48;100881.92;108158;1258;72569;-68
2023/09/18 02:44:39;;;;;;;38.30;26.10;;;;;;;18.59;58.06;100880.91;108190;1251;61715;-68
2023/09/18 02:47:07;;;;;;;29.00;20.40;;;;;;;18.54;57.98;100881.16;108238;1251;60262;-67
2023/09/18 02:49:34;;;;;;;36.60;24.70;;;;;;;18.49;58.48;100880.39;108248;1251;72921;-66
2023/09/18 02:52:03;;;;;;;40.60;27.40;;;;;;;18.49;58.35;100877.39;108326;1251;69908;-67
2023/09/18 02:54:30;;;;;;;37.80;25.90;;;;;;;18.49;58.35;100877.89;108275;1253;72712;-67
2023/09/18 02:56:58;;;;;;;41.20;27.80;;;;;;;18.36;58.71;100874.38;108171;1251;62104;-67
2023/09/18 02:59:25;;;;;;;45.00;28.90;;;;;;;18.26;58.95;100869.30;108257;1251;59224;-68
2023/09/18 03:01:52;;;;;;;38.50;26.60;;;;;;;18.37;58.92;100868.14;108194;1251;71655;-68
2023/09/18 03:04:20;;;;;;;45.80;29.50;;;;;;;18.41;58.67;100869.15;108276;1251;68620;-67
2023/09/18 03:06:49;;;;;;;35.30;25.50;;;;;;;18.52;58.41;100870.98;108293;1254;71761;-67
2023/09/18 03:09:16;;;;;;;45.40;29.70;;;;;;;18.51;58.45;100868.34;108282;1254;59727;-67
2023/09/18 03:11:44;;;;;;;41.30;28.70;;;;;;;18.46;58.45;100867.40;108233;1251;60976;-68
2023/09/18 03:14:11;;;;;;;39.50;28.00;;;;;;;18.48;58.54;100868.88;108286;1251;72620;-68
2023/09/18 03:16:38;;;;;;;47.20;29.40;;;;;;;18.42;58.71;100869.63;108305;1251;69910;-67
2023/09/18 03:19:06;;;;;;;35.70;24.70;;;;;;;18.45;58.71;100869.77;108407;1253;72385;-67
2023/09/18 03:21:35;;;;;;;42.30;27.60;;;;;;;18.59;58.32;100868.77;108383;1254;61663;-68
2023/09/18 03:24:04;;;;;;;48.90;28.50;;;;;;;18.52;58.33;100870.44;108273;1251;60261;-67
2023/09/18 03:26:31;;;;;;;30.30;21.70;;;;;;;18.54;58.14;100867.28;108188;1254;72621;-68
2023/09/18 03:28:59;;;;;;;45.20;30.40;;;;;;;18.65;58.00;100869.15;108236;1254;70276;-67
2023/09/18 03:31:29;;;;;;;39.30;26.90;;;;;;;18.63;58.05;100870.88;108141;1254;72658;-68
2023/09/18 03:33:57;;;;;;;36.90;27.40;;;;;;;18.76;57.70;100871.16;108074;1253;61744;-68
2023/09/18 03:36:26;;;;;;;41.70;28.00;;;;;;;18.83;57.48;100869.92;108167;1254;62178;-68
2023/09/18 03:38:53;;;;;;;31.20;23.10;;;;;;;18.92;57.26;100867.60;108051;1252;73156;-67
2023/09/18 03:41:21;;;;;;;42.10;28.00;;;;;;;18.88;57.22;100869.23;108149;1254;69281;-68
2023/09/18 03:43:49;;;;;;;44.80;28.00;;;;;;;18.84;57.32;100869.86;108051;1255;72773;-68
2023/09/18 03:46:16;;;;;;;41.90;25.50;;;;;;;18.90;57.18;100870.35;108015;1254;61712;-67
2023/09/18 03:48:47;;;;;;;37.50;25.50;;;;;;;19.07;56.87;100868.08;108115;1254;60041;-68
2023/09/18 03:51:15;;;;;;;30.50;21.90;;;;;;;19.02;56.94;100871.58;108038;1254;72562;-68
2023/09/18 03:53:44;;;;;;;32.30;22.50;;;;;;;18.93;57.32;100867.36;108069;1254;69081;-68
2023/09/18 03:56:11;;;;;;;40.30;25.20;;;;;;;18.91;57.32;100869.24;108015;1255;72475;-68
2023/09/18 03:58:40;;;;;;;31.90;23.10;;;;;;;19.06;57.03;100867.44;108033;1253;60973;-67
2023/09/18 04:01:07;;;;;;;42.30;25.80;;;;;;;19.13;56.83;100864.54;108126;1254;60404;-68
2023/09/18 04:03:35;;;;;;;35.50;24.70;;;;;;;19.29;56.42;100867.12;108003;1259;73895;-68
2023/09/18 04:06:03;;;;;;;27.10;19.40;;;;;;;19.37;56.30;100867.50;108097;1254;70078;-67
2023/09/18 04:08:30;;;;;;;36.10;24.40;;;;;;;19.37;56.38;100869.09;108019;1254;73011;-68
2023/09/18 04:11:00;;;;;;;27.80;19.40;;;;;;;19.45;56.13;100866.84;108118;1252;61769;-67
2023/09/18 04:13:28;;;;;;;36.00;22.90;;;;;;;19.53;56.00;100870.23;108097;1254;60638;-67
2023/09/18 04:15:56;;;;;;;35.20;22.50;;;;;;;19.38;56.31;100872.44;108045;1259;73822;-67
2023/09/18 04:18:25;;;;;;;36.10;24.20;;;;;;;19.29;56.35;100873.15;108119;1258;69166;-67
2023/09/18 04:20:55;;;;;;;27.60;20.30;;;;;;;19.30;56.34;100876.49;108250;1256;72990;-70
2023/09/18 04:23:24;;;;;;;31.00;21.30;;;;;;;19.36;55.57;100877.72;108263;1251;60489;-67
2023/09/18 04:25:52;;;;;;;35.00;21.30;;;;;;;19.45;56.15;100877.52;108234;1250;60319;-68
2023/09/18 04:28:21;;;;;;;34.70;22.10;;;;;;;19.80;55.47;100875.54;108365;1256;73874;-67
2023/09/18 04:30:48;;;;;;;28.20;21.40;;;;;;;19.88;55.09;100882.50;108210;1252;69223;-68
2023/09/18 04:33:16;;;;;;;32.70;21.30;;;;;;;19.95;55.00;100881.19;108342;1254;72568;-67
2023/09/18 04:35:44;;;;;;;31.10;21.00;;;;;;;19.95;54.86;100877.80;108148;1255;236519;-68
2023/09/18 04:39:43;;;;;;;35.40;22.20;;;;;;;18.73;59.42;100884.21;105002;1291;599943;-69
2023/09/18 04:42:10;;;;;;;33.40;20.50;;;;;;;19.55;56.70;100879.36;107376;1265;60855;-68
2023/09/18 04:44:38;;;;;;;36.70;21.30;;;;;;;19.77;56.10;100879.65;107514;1260;58764;-68
2023/09/18 04:47:06;;;;;;;29.50;19.20;;;;;;;19.86;55.93;100884.25;107450;1267;70826;-68
2023/09/18 04:49:33;;;;;;;32.60;20.60;;;;;;;20.00;55.55;100881.04;107483;1260;70089;-68
2023/09/18 04:52:00;;;;;;;34.30;19.70;;;;;;;20.19;55.23;100878.89;107964;1257;71385;-68
2023/09/18 04:54:28;;;;;;;32.60;18.80;;;;;;;20.36;54.67;100877.27;107850;1254;250343;-68
2023/09/18 04:56:55;;;;;;;26.20;18.00;;;;;;;20.75;53.85;100879.81;108083;1253;60155;-67
2023/09/18 04:59:23;;;;;;;27.70;18.60;;;;;;;21.10;52.77;100878.30;108016;1253;72238;-68
2023/09/18 05:01:50;;;;;;;26.00;15.70;;;;;;;21.51;51.95;100877.46;107980;1253;69193;-69
2023/09/18 05:04:18;;;;;;;25.90;15.50;;;;;;;21.56;51.46;100874.81;108004;1253;72784;-68
2023/09/18 05:06:46;;;;;;;20.30;14.70;;;;;;;21.70;50.40;100872.20;107999;1253;61719;-69
2023/09/18 05:09:14;;;;;;;21.40;14.50;;;;;;;21.86;49.63;100870.48;108073;1254;59532;-68
2023/09/18 05:11:42;;;;;;;26.40;15.00;;;;;;;21.98;48.89;100868.74;108008;1254;71909;-69
2023/09/18 05:14:10;;;;;;;19.00;12.20;;;;;;;22.21;48.16;100867.73;108064;1254;69086;-69
2023/09/18 05:16:40;;;;;;;19.70;13.50;;;;;;;22.34;47.52;100873.42;108082;1254;72694;-69
2023/09/18 05:19:07;;;;;;;20.00;13.90;;;;;;;22.28;47.18;100876.97;108083;1253;59941;-68
2023/09/18 05:21:35;;;;;;;21.50;13.90;;;;;;;22.53;47.26;100880.11;108085;1253;59928;-68
2023/09/18 05:24:04;;;;;;;23.10;12.10;;;;;;;22.99;46.84;100880.34;108003;1254;72988;-69
2023/09/18 05:26:32;;;;;;;14.10;11.30;;;;;;;23.52;44.60;100879.02;107960;1255;70343;-68
2023/09/18 05:28:59;;;;;;;20.80;12.40;;;;;;;23.88;43.40;100881.45;107759;1256;72468;-68
2023/09/18 05:31:26;;;;;;;18.70;11.80;;;;;;;24.26;42.06;100878.46;107953;1256;59596;-69
2023/09/18 05:33:54;;;;;;;19.50;11.10;;;;;;;24.52;41.41;100877.96;107805;1257;59490;-69
2023/09/18 05:36:21;;;;;;;18.90;11.70;;;;;;;24.86;40.71;100882.78;107892;1257;71531;-69
2023/09/18 05:38:48;;;;;;;22.60;11.60;;;;;;;25.00;39.87;100880.52;107744;1256;69194;-69
2023/09/18 05:41:16;;;;;;;15.80;12.30;;;;;;;25.06;39.84;100878.42;107789;1257;71446;-70
2023/09/18 05:43:43;;;;;;;17.20;11.00;;;;;;;25.00;40.09;100874.67;107890;1256;59502;-69
2023/09/18 05:46:11;;;;;;;16.30;11.40;;;;;;;24.80;39.22;100878.99;107892;1257;59621;-69
2023/09/18 05:48:38;;;;;;;18.50;12.20;;;;;;;24.52;40.20;100874.73;107875;1255;73078;-69
2023/09/18 05:51:06;;;;;;;18.20;11.40;;;;;;;24.52;40.42;100876.36;107891;1257;70002;-70
2023/09/18 05:53:34;;;;;;;21.00;12.20;;;;;;;24.95;40.24;100876.69;107823;1257;72726;-69
2023/09/18 05:56:03;;;;;;;17.10;10.70;;;;;;;25.24;39.65;100875.04;107775;1256;60085;-69
2023/09/18 05:58:32;;;;;;;17.00;10.60;;;;;;;25.47;39.03;100868.77;107816;1257;60148;-69
2023/09/18 06:01:00;;;;;;;19.20;11.40;;;;;;;26.02;38.47;100866.08;107758;1262;73259;-70
2023/09/18 06:03:30;;;;;;;14.70;11.00;;;;;;;26.83;36.94;100868.50;107868;1257;70265;-71
2023/09/18 06:05:58;;;;;;;15.20;9.70;;;;;;;27.22;35.68;100867.55;108115;1252;71286;-69
2023/09/18 06:08:26;;;;;;;15.80;10.80;;;;;;;27.57;34.67;100870.45;108096;1253;59599;-70
2023/09/18 06:10:55;;;;;;;15.80;10.20;;;;;;;27.81;34.05;100870.33;108076;1257;59506;-69
2023/09/18 06:13:24;;;;;;;21.70;9.60;;;;;;;28.10;33.65;100871.68;108042;1254;71797;-70
2023/09/18 06:15:54;;;;;;;12.90;9.50;;;;;;;28.45;33.22;100865.81;108030;1253;69723;-70
2023/09/18 06:18:22;;;;;;;11.90;9.60;;;;;;;28.68;32.71;100869.23;108053;1254;71411;-69
2023/09/18 06:20:50;;;;;;;17.30;10.80;;;;;;;28.92;32.64;100869.48;108073;1253;59502;-70
2023/09/18 06:23:18;;;;;;;16.00;8.50;;;;;;;29.60;32.38;100862.73;108057;1252;59027;-70
2023/09/18 06:25:45;;;;;;;18.60;10.10;;;;;;;30.16;30.80;100861.36;108029;1254;71595;-69
2023/09/18 06:28:13;;;;;;;17.40;9.50;;;;;;;30.31;30.70;100865.01;108082;1252;70983;-70
2023/09/18 06:30:43;;;;;;;14.10;9.40;;;;;;;30.85;30.49;100860.54;108057;1252;72442;-68
2023/09/18 06:33:12;;;;;;;15.00;8.60;;;;;;;31.55;29.72;100861.41;108041;1252;59683;-70
2023/09/18 06:35:42;;;;;;;12.80;8.70;;;;;;;31.98;29.14;100862.52;108079;1253;60144;-70
2023/09/18 06:38:11;;;;;;;13.40;8.70;;;;;;;32.63;28.24;100867.98;108066;1252;71860;-70
2023/09/18 06:40:39;;;;;;;13.70;9.10;;;;;;;33.23;27.54;100869.52;108022;1253;73243;-70
2023/09/18 06:43:07;;;;;;;13.20;7.80;;;;;;;33.38;27.06;100865.72;108043;1254;62522;-70
2023/09/18 06:45:36;;;;;;;14.00;8.50;;;;;;;33.51;26.37;100864.08;108047;1253;59424;-71
2023/09/18 06:48:04;;;;;;;15.20;9.40;;;;;;;33.61;26.22;100863.82;108029;1253;59023;-70
2023/09/18 06:50:33;;;;;;;14.00;8.60;;;;;;;33.84;26.23;100864.98;108050;1259;64142;-71
2023/09/18 06:53:01;;;;;;;13.90;9.10;;;;;;;34.18;25.57;100861.20;108119;1253;70091;-70
2023/09/18 06:55:28;;;;;;;13.10;8.40;;;;;;;34.40;25.22;100862.48;108072;1253;64213;-70
2023/09/18 06:57:56;;;;;;;12.40;8.40;;;;;;;34.56;24.85;100861.02;108091;1253;59605;-70
2023/09/18 07:00:25;;;;;;;11.10;7.80;;;;;;;34.54;25.25;100863.64;108032;1254;60476;-70
2023/09/18 07:02:52;;;;;;;11.10;8.10;;;;;;;34.56;24.91;100861.80;108027;1253;64497;-71
2023/09/18 07:05:20;;;;;;;14.50;7.60;;;;;;;34.62;25.09;100858.58;108054;1253;61673;-71
2023/09/18 07:07:48;;;;;;;10.80;7.30;;;;;;;34.87;24.77;100861.23;108049;1254;62539;-69
2023/09/18 07:10:15;;;;;;;10.40;7.30;;;;;;;35.18;24.21;100863.72;108044;1254;59586;-70
2023/09/18 07:12:43;;;;;;;11.50;7.20;;;;;;;35.53;23.68;100859.25;108113;1254;59496;-70
2023/09/18 07:15:10;;;;;;;12.50;7.20;;;;;;;35.69;23.60;100858.23;108054;1257;64140;-69
2023/09/18 07:17:37;;;;;;;11.50;6.90;;;;;;;36.00;23.28;100851.04;108063;1252;60071;-71
2023/09/18 07:20:14;;;;;;;12.00;7.00;;;;;;;36.13;22.68;100850.02;108089;1254;63745;-69
2023/09/18 07:22:47;;;;;;;9.20;6.40;;;;;;;36.37;22.94;100852.46;108058;1253;59426;-69
2023/09/18 07:25:15;;;;;;;12.00;7.60;;;;;;;36.55;22.35;100848.10;108055;1254;59685;-71
2023/09/18 07:27:45;;;;;;;9.70;6.90;;;;;;;36.69;21.93;100845.38;108019;1253;64363;-70
2023/09/18 07:30:16;;;;;;;;;;;;;;;36.75;21.40;100847.96;108039;1254;60419;-71
2023/09/18 07:32:44;;;;;;;;;;;;;;;36.72;21.24;100841.84;108074;1254;62456;-69
2023/09/18 07:35:13;;;;;;;;;;;;;;;36.59;21.04;100842.95;108100;1254;59507;-70
2023/09/18 07:37:40;;;;;;;;;;;;;;;36.94;21.16;100842.75;108188;1256;59711;-70
2023/09/18 07:40:08;;;;;;;;;;;;;;;37.27;20.85;100843.17;108097;1254;64220;-69
2023/09/18 07:42:35;;;;;;;;;;;;;;;37.60;20.82;100838.81;108075;1254;61479;-70
2023/09/18 07:45:02;;;;;;;;;;;;;;;37.80;20.75;100837.96;108041;1257;64047;-71
2023/09/18 07:47:30;;;;;;;;;;;;;;;38.16;20.35;100835.81;108044;1253;59574;-71
2023/09/18 07:49:59;;;;;;;;;;;;;;;38.32;19.77;100836.98;108093;1252;59856;-70
2023/09/18 07:52:27;;;;;;;;;;;;;;;38.19;19.63;100838.17;108040;1253;64230;-70
2023/09/18 07:54:55;;;;;;;;;;;;;;;38.30;19.44;100838.23;108067;1252;60515;-71
2023/09/18 07:57:23;;;;;;;;;;;;;;;38.26;19.51;100838.18;108048;1253;74832;-71
2023/09/18 07:59:51;;;;;;;;;;;;;;;38.12;19.40;100838.98;108061;1253;59592;-71
2023/09/18 08:02:18;;;;;;;;;;;;;;;37.87;19.46;100840.67;108045;1253;59620;-71
2023/09/18 08:04:46;;;;;;;;;;;;;;;37.41;19.58;100840.38;108057;1254;62923;-71
2023/09/18 08:07:13;;;;;;;;;;;;;;;37.41;19.46;100837.50;108065;1253;61406;-71
2023/09/18 08:09:41;;;;;;;;;;;;;;;37.45;19.71;100838.42;108037;1253;64750;-70
2023/09/18 08:12:09;;;;;;;;;;;;;;;37.46;19.91;100840.36;108102;1254;59810;-70
2023/09/18 08:14:36;;;;;;;;;;;;;;;37.55;19.89;100836.14;108049;1253;59427;-71
2023/09/18 08:17:07;;;;;;;;;;;;;;;38.02;19.49;100829.51;108067;1253;62910;-71
2023/09/18 08:19:37;;;;;;;;;;;;;;;38.45;18.03;100829.15;108147;1254;61363;-72
2023/09/18 08:22:06;;;;;;;;;;;;;;;38.12;18.29;100827.42;108076;1254;64021;-70
2023/09/18 08:24:34;;;;;;;;;;;;;;;38.02;18.48;100827.02;108043;1253;59622;-70
2023/09/18 08:27:01;;;;;;;;;;;;;;;37.78;18.72;100825.87;108145;1253;59512;-71
2023/09/18 08:29:28;;;;;;;;;;;;;;;37.88;18.97;100824.34;108217;1253;64085;-71
2023/09/18 08:31:56;;;;;;;;;;;;;;;37.86;18.92;100822.41;108140;1254;61352;-72
2023/09/18 08:34:23;;;;;;;;;;;;;;;38.17;18.85;100822.65;108184;1253;62430;-71
2023/09/18 08:36:53;;;;;;;;;;;;;;;38.52;18.49;100822.16;108120;1253;59488;-71
2023/09/18 08:39:21;;;;;;;;;;;;;;;38.71;18.46;100818.70;108176;1254;59649;-71
2023/09/18 08:41:49;;;;;;;;;;;;;;;39.12;17.92;100817.53;108041;1252;63268;-70
2023/09/18 08:44:17;;;;;;;;;;;;;;;39.63;17.46;100819.16;108127;1253;60292;-71
2023/09/18 08:46:45;;;;;;;;;;;;;;;39.70;16.95;100817.72;108138;1254;65888;-71
2023/09/18 08:49:12;;;;;;;;;;;;;;;39.68;17.21;100813.91;108176;1253;60274;-70
2023/09/18 08:51:40;;;;;;;;;;;;;;;39.70;16.89;100810.54;108089;1254;60459;-70
2023/09/18 08:54:08;;;;;;;;;;;;;;;39.51;16.73;100807.95;108097;1253;67283;-71
2023/09/18 08:56:35;;;;;;;;;;;;;;;39.64;16.94;100807.78;108118;1254;60177;-71
2023/09/18 08:59:03;;;;;;;;;;;;;;;40.19;16.74;100808.40;108121;1252;63980;-69
2023/09/18 09:01:30;;;;;;;;;;;;;;;40.27;16.21;100807.31;108140;1253;60299;-69
2023/09/18 09:03:58;;;;;;;;;;;;;;;39.97;16.20;100800.60;108149;1253;60358;-69
2023/09/18 09:06:25;;;;;;;;;;;;;;;39.60;16.33;100799.58;108067;1253;65047;-69
2023/09/18 09:08:53;;;;;;;;;;;;;;;39.38;16.56;100801.66;108114;1253;62570;-68
2023/09/18 09:11:22;;;;;;;;;;;;;;;39.23;16.28;100801.16;108091;1254;62614;-68
2023/09/18 09:14:09;;;;;;;;;;;;;;;39.18;16.21;100801.79;108110;1253;60434;-68
2023/09/18 09:16:38;;;;;;;;;;;;;;;39.01;16.64;100797.67;108120;1252;60518;-68
2023/09/18 09:19:05;;;;;;;;;;;;;;;39.17;16.69;100797.45;108151;1253;63647;-69
2023/09/18 09:21:39;;;;;;;;;;;;;;;39.03;16.11;100796.88;108120;1253;61505;-68
2023/09/18 09:24:07;;;;;;;;;;;;;;;39.18;16.60;100801.16;108048;1253;63779;-69
2023/09/18 09:26:36;;;;;;;;;;;;;;;39.15;16.38;100803.45;108105;1252;60434;-68
2023/09/18 09:29:18;;;;;;;;;;;;;;;38.97;16.59;100804.57;108174;1252;60214;-68
2023/09/18 09:31:46;;;;;;;;;;;;;;;39.26;16.28;100800.45;108161;1252;64834;-69
2023/09/18 09:34:23;;;;;;;;;;;;;;;39.22;15.98;100802.23;108155;1253;61460;-68
2023/09/18 09:36:51;;;;;;;;;;;;;;;38.97;16.39;100801.51;108157;1253;63919;-69
2023/09/18 09:39:18;;;;;;;;;;;;;;;38.81;16.62;100796.96;108151;1254;60795;-70
2023/09/18 09:41:47;;;;;;;;;;;;;;;38.39;16.80;100795.67;108189;1254;60420;-68
2023/09/18 09:44:14;;;;;;;;;;;;;;;38.02;16.99;100791.23;108114;1254;76254;-68
2023/09/18 09:46:45;;;;;;;;;;;;;;;37.87;17.17;100790.77;108199;1254;61371;-68
2023/09/18 09:49:15;;;;;;;;;;;;;;;37.90;17.43;100793.47;108156;1252;63332;-69
2023/09/18 09:51:42;;;;;;;;;;;;;;;37.54;17.57;100795.40;108110;1253;60364;-67
2023/09/18 09:54:12;;;;;;;;;;;;;;;37.23;17.56;100789.02;108156;1254;60307;-69
2023/09/18 09:56:39;;;;;;;;;;;;;;;37.43;17.62;100790.55;108106;1253;73660;-69
2023/09/18 09:59:11;;;;;;;;;;;;;;;37.52;17.57;100786.00;108154;1254;60447;-68
2023/09/18 10:01:41;;;;;;;;;;;;;;;37.61;17.45;100784.02;108155;1258;65911;-69
2023/09/18 10:04:17;;;;;;;;;;;;;;;37.52;17.60;100785.49;108101;1253;62342;-69
2023/09/18 10:06:46;;;;;;;;;;;;;;;37.12;17.55;100790.25;108200;1256;60276;-69
2023/09/18 10:09:14;;;;;;;;;;;;;;;36.46;18.08;100787.58;108171;1256;65254;-68
2023/09/18 10:11:44;;;;;;;;;;;;;;;35.86;18.88;100786.29;108173;1254;61367;-68
2023/09/18 10:14:18;;;;;;;;;;;;;;;35.63;18.92;100776.66;108183;1256;64290;-67
2023/09/18 10:16:49;;;;;;;;;;;;;;;35.87;18.83;100774.54;108160;1253;60064;-68
2023/09/18 10:19:55;;;;;;;;;;;;;;;36.11;18.79;100771.55;108133;1256;60717;-67
2023/09/18 10:22:32;;;;;;;;;;;;;;;36.40;18.48;100770.98;107560;1264;64909;-68
2023/09/18 10:25:03;;;;;;;;;;;;;;;36.24;18.37;100769.39;107455;1260;63354;-67
2023/09/18 10:27:31;;;;;;;;;;;;;;;36.30;18.55;100766.36;107781;1253;66279;-67
2023/09/18 10:29:58;;;;;;;;;;;;;;;36.49;18.29;100768.09;108050;1254;60598;-68
2023/09/18 10:32:28;;;;;;;;;;;;;;;36.42;18.56;100766.02;108033;1254;60386;-68
2023/09/18 10:34:55;;;;;;;;;;;;;;;36.64;18.51;100764.89;108037;1253;64894;-68
2023/09/18 10:37:23;;;;;;;;;;;;;;;37.18;18.07;100762.14;108076;1254;60755;-69
2023/09/18 10:39:50;;;;;;;;;;;;;;;37.49;17.54;100759.24;107927;1254;64754;-68
2023/09/18 10:42:18;;;;;;;;;;;;;;;37.55;17.39;100753.77;108010;1254;61016;-68
2023/09/18 10:44:45;;;;;;;;;;;;;;;37.25;18.07;100756.69;108045;1253;60739;-68
2023/09/18 10:47:14;;;;;;;;;;;;;;;36.80;18.51;100759.54;108070;1254;63678;-68
2023/09/18 10:49:42;;;;;;;;;;;;;;;36.55;18.82;100755.55;108070;1253;60425;-67
2023/09/18 10:52:15;;;;;;;;;;;;;;;36.99;18.52;100750.24;108121;1254;64691;-66
2023/09/18 10:54:43;;;;;;;;;;;;;;;37.12;18.39;100749.38;108076;1254;60321;-68
2023/09/18 10:57:10;;;;;;;;;;;;;;;37.31;18.26;100742.98;108035;1254;60607;-69
2023/09/18 10:59:45;;;;;;;;;;;;;;;37.34;18.49;100749.17;108031;1254;63645;-68
2023/09/18 11:02:16;;;;;;;;;;;;;;;37.24;18.53;100746.18;108062;1253;71286;-68
2023/09/18 11:04:46;;;;;;;;;;;;;;;37.32;18.55;100740.73;108041;1254;75265;-68
2023/09/18 11:07:20;;;;;;;;;;;;;;;37.24;18.76;100738.44;108084;1252;60501;-69
2023/09/18 11:09:48;;;;;;;;;;;;;;;37.43;18.57;100735.54;108101;1254;60136;-68
2023/09/18 11:12:16;;;;;;;;;;;;;;;36.65;19.17;100740.98;108069;1258;63851;-68
2023/09/18 11:14:46;;;;;;;;;;;;;;;35.99;19.48;100743.20;108084;1254;63333;-69
2023/09/18 11:17:33;;;;;;;;;;;;;;;35.37;19.83;100734.26;108107;1254;62982;-68
2023/09/18 11:20:09;;;;;;;;;;;;;;;35.56;19.83;100725.77;108139;1258;59530;-68
2023/09/18 11:22:37;;;;;;;;;;;;;;;36.07;19.26;100724.63;108129;1254;60553;-71
2023/09/18 11:25:24;;;;;;;;;;;;;;;36.25;19.23;100723.16;108083;1253;65046;-69
2023/09/18 11:27:54;;;;;;;;;;;;;;;36.10;19.56;100720.98;108241;1253;61539;-68
2023/09/18 11:30:22;;;;;;;;;;;;;;;35.98;19.51;100718.75;108189;1254;64044;-70
2023/09/18 11:32:49;;;;;;;;;;;;;;;35.70;19.89;100719.88;108181;1253;60356;-68
2023/09/18 11:35:18;;;;;;;;;;;;;;;35.54;19.96;100720.52;108153;1254;60489;-69
2023/09/18 11:37:45;;;;;;;;;;;;;;;35.76;19.78;100720.09;108271;1254;67166;-69
2023/09/18 11:40:30;;;;;;;;;;;;;;;35.88;19.68;100713.96;108088;1254;63606;-68